createdAt,value
2023-03-24T00:02:31.588Z,2313.23077
2023-03-24T00:07:32.915Z,2408
2023-03-24T00:12:34.266Z,2408
2023-03-24T00:17:35.552Z,2408
2023-03-24T00:22:36.793Z,2313.23077
2023-03-24T00:27:38.162Z,2144
2023-03-24T00:32:39.528Z,2408
2023-03-24T00:37:40.947Z,2510.66667
2023-03-24T00:42:42.168Z,2622.26087
2023-03-24T00:47:43.581Z,2744
2023-03-24T00:52:44.884Z,2510.66667
2023-03-24T00:57:46.364Z,2510.66667
2023-03-24T01:02:47.681Z,2510.66667
2023-03-24T01:07:48.970Z,2744
2023-03-24T01:12:50.450Z,3366.22222
2023-03-24T01:17:51.748Z,3024
2023-03-24T01:22:53.026Z,2622.26087
2023-03-24T01:27:54.387Z,2744
2023-03-24T01:32:56.034Z,2408
2023-03-24T01:37:57.360Z,2622.26087
2023-03-24T01:42:58.648Z,2622.26087
2023-03-24T01:47:59.905Z,2622.26087
2023-03-24T01:53:01.237Z,2510.66667
2023-03-24T01:58:02.675Z,2510.66667
2023-03-24T02:03:03.998Z,2408
2023-03-24T02:08:05.261Z,2313.23077
2023-03-24T02:13:06.647Z,2225.48148
2023-03-24T02:18:08.346Z,2225.48148
2023-03-24T02:23:09.742Z,2225.48148
2023-03-24T02:28:11.294Z,2068.13793
2023-03-24T02:33:12.556Z,2068.13793
2023-03-24T02:38:14.158Z,1869
2023-03-24T02:43:15.556Z,1931.09677
2023-03-24T02:48:16.802Z,1869
2023-03-24T02:53:18.061Z,1931.09677
2023-03-24T02:58:19.366Z,1810.66667
2023-03-24T03:03:20.734Z,1810.66667
2023-03-24T03:08:22.032Z,1755.76471
2023-03-24T03:13:23.523Z,1755.76471
2023-03-24T03:18:24.868Z,1755.76471
2023-03-24T03:23:26.284Z,1655.11111
2023-03-24T03:28:27.568Z,1704
2023-03-24T03:33:28.905Z,1704
2023-03-24T03:38:30.216Z,1608.86486
2023-03-24T03:43:31.454Z,1608.86486
2023-03-24T03:48:32.715Z,1523.48718
2023-03-24T03:53:34.118Z,1484
2023-03-24T03:58:35.746Z,1484
2023-03-24T04:03:37.295Z,1523.48718
2023-03-24T04:08:38.778Z,1484
2023-03-24T04:13:40.030Z,1446.43902
2023-03-24T04:18:41.381Z,1446.43902
2023-03-24T04:23:42.736Z,1376.55814
2023-03-24T04:28:44.248Z,1376.55814
2023-03-24T04:33:45.489Z,1254.6383
2023-03-24T04:38:46.734Z,1312.88889
2023-03-24T04:43:48.090Z,1254.6383
2023-03-24T04:48:49.313Z,1151.84314
2023-03-24T04:53:50.608Z,1176
2023-03-24T04:58:52.083Z,1151.84314
2023-03-24T05:03:53.432Z,1128.61538
2023-03-24T05:08:54.741Z,1176
2023-03-24T05:13:56.298Z,1106.26415
2023-03-24T05:18:57.684Z,1044
2023-03-24T05:23:59.064Z,1106.26415
2023-03-24T05:29:00.366Z,1024.70175
2023-03-24T05:34:01.629Z,1044
2023-03-24T05:39:02.947Z,1044
2023-03-24T05:44:04.405Z,1106.26415
2023-03-24T05:49:05.870Z,1084.74074
2023-03-24T05:54:07.126Z,1128.61538
2023-03-24T05:59:09.776Z,1128.61538
2023-03-24T06:04:11.077Z,1084.74074
2023-03-24T06:09:12.420Z,1106.26415
2023-03-24T06:14:13.914Z,1128.61538
2023-03-24T06:19:15.494Z,1044
2023-03-24T06:24:17.109Z,1064
2023-03-24T06:29:18.495Z,1044
2023-03-24T06:34:20.030Z,1064
2023-03-24T06:39:21.372Z,1006.06897
2023-03-24T06:44:22.746Z,1006.06897
2023-03-24T06:49:24.047Z,953.83607
2023-03-24T06:54:25.325Z,1106.26415
2023-03-24T06:59:26.807Z,1084.74074
2023-03-24T07:04:28.137Z,1106.26415
2023-03-24T07:09:29.481Z,1106.26415
2023-03-24T07:14:30.738Z,1084.74074
2023-03-24T07:19:32.095Z,1084.74074
2023-03-24T07:24:33.351Z,988.0678
2023-03-24T07:29:34.737Z,1084.74074
2023-03-24T07:34:36.235Z,1176
2023-03-24T07:39:37.606Z,1151.84314
2023-03-24T07:44:38.894Z,1128.61538
2023-03-24T07:49:40.132Z,1201.14286
2023-03-24T07:54:41.421Z,1201.14286
2023-03-24T07:59:42.831Z,1201.14286
2023-03-24T08:04:44.304Z,1128.61538
2023-03-24T08:09:45.550Z,1254.6383
2023-03-24T08:14:47.067Z,1064
2023-03-24T08:19:59.097Z,1254.6383
2023-03-24T08:25:02.130Z,1201.14286
2023-03-24T08:30:03.545Z,1176
2023-03-24T08:35:05.076Z,1312.88889
2023-03-24T08:40:06.601Z,1312.88889
2023-03-24T08:45:07.928Z,1484
2023-03-24T08:50:09.328Z,1227.33333
2023-03-24T08:55:10.580Z,1608.86486
2023-03-24T09:00:12.073Z,1446.43902
2023-03-24T09:05:13.582Z,1312.88889
2023-03-24T09:10:14.939Z,1565.05263
2023-03-24T09:15:16.304Z,1523.48718
2023-03-24T09:20:17.657Z,1869
2023-03-24T09:25:19.054Z,1704
2023-03-24T09:30:20.692Z,1931.09677
2023-03-24T09:35:21.989Z,1608.86486
2023-03-24T09:40:23.310Z,2225.48148
2023-03-24T09:45:24.666Z,1810.66667
2023-03-24T09:50:25.937Z,2313.23077
2023-03-24T09:55:27.210Z,3186.10526
2023-03-24T10:00:28.657Z,2877.33333
2023-03-24T10:05:29.975Z,2744
2023-03-24T10:10:31.286Z,4050.66667
2023-03-24T10:15:37.835Z,3794
2023-03-24T10:20:39.716Z,5544
2023-03-24T10:25:41.016Z,7644
2023-03-24T10:30:44.109Z,10210.66667
2023-03-24T10:35:46.645Z,12264
2023-03-24T10:40:48.158Z,12264
2023-03-24T10:45:49.880Z,12264
2023-03-24T10:50:51.320Z,12264
2023-03-24T10:55:52.590Z,8744
2023-03-24T11:00:54.010Z,15344
2023-03-24T11:05:55.528Z,30744
2023-03-24T11:10:56.815Z,30744
2023-03-24T11:15:58.325Z,20477.33333
2023-03-24T11:20:59.810Z,15344
2023-03-24T11:26:01.148Z,20477.33333
2023-03-24T11:31:02.843Z,30744
2023-03-24T11:36:06.126Z,30744
2023-03-24T11:41:07.820Z,30744
2023-03-24T11:46:09.057Z,61544
2023-03-24T11:51:10.453Z,61544
2023-03-24T11:56:11.705Z,61544
2023-03-24T12:01:12.969Z,61544
2023-03-24T12:06:14.442Z,61544
2023-03-24T12:11:18.127Z,61544
2023-03-24T12:16:20.926Z,0
2023-03-24T12:21:22.267Z,0
2023-03-24T12:26:23.654Z,0
2023-03-24T12:31:25.178Z,61544
2023-03-24T12:36:26.431Z,0
2023-03-24T12:41:27.740Z,61544
2023-03-24T12:46:40.578Z,0
2023-03-24T12:51:46.063Z,0
2023-03-24T12:56:47.512Z,61544
2023-03-24T13:01:48.930Z,61544
2023-03-24T13:06:50.194Z,61544
2023-03-24T13:11:51.444Z,61544
2023-03-24T13:16:52.851Z,61544
2023-03-24T13:21:54.392Z,0
2023-03-24T13:26:55.709Z,0
2023-03-24T13:31:57.096Z,61544
2023-03-24T13:36:58.771Z,0
2023-03-24T13:42:00.448Z,0
2023-03-24T13:47:01.751Z,0
2023-03-24T13:52:03.097Z,0
2023-03-24T13:57:04.411Z,0
2023-03-24T14:02:05.740Z,0
2023-03-24T14:07:07.064Z,0
2023-03-24T14:12:08.671Z,0
2023-03-24T14:17:10.067Z,0
2023-03-24T14:22:11.534Z,61544
2023-03-24T14:27:12.903Z,0
2023-03-24T14:32:20.287Z,0
2023-03-24T14:37:21.989Z,61544
2023-03-24T14:42:23.241Z,0
2023-03-24T14:47:24.501Z,61544
2023-03-24T14:52:25.856Z,61544
2023-03-24T14:57:27.120Z,61544
2023-03-24T15:02:28.604Z,61544
2023-03-24T15:07:29.909Z,61544
2023-03-24T15:12:31.200Z,30744
2023-03-24T15:17:32.740Z,61544
2023-03-24T15:22:34.067Z,61544
2023-03-24T15:27:35.378Z,30744
2023-03-24T15:32:36.784Z,61544
2023-03-24T15:37:40.683Z,61544
2023-03-24T15:42:42.624Z,30744
2023-03-24T15:47:44.086Z,8744
2023-03-24T15:52:45.686Z,20477.33333
2023-03-24T15:57:47.065Z,20477.33333
2023-03-24T16:02:48.530Z,20477.33333
2023-03-24T16:07:50.136Z,30744
2023-03-24T16:12:51.502Z,30744
2023-03-24T16:17:52.830Z,30744
2023-03-24T16:22:54.101Z,20477.33333
2023-03-24T16:27:55.478Z,20477.33333
2023-03-24T16:32:57.061Z,20477.33333
2023-03-24T16:37:58.439Z,20477.33333
2023-03-24T16:42:59.813Z,15344
2023-03-24T16:48:01.261Z,20477.33333
2023-03-24T16:53:02.603Z,30744
2023-03-24T16:58:03.885Z,15344
2023-03-24T17:03:05.427Z,15344
2023-03-24T17:08:06.758Z,10210.66667
2023-03-24T17:13:08.114Z,8744
2023-03-24T17:18:09.359Z,6788.44444
2023-03-24T17:23:10.776Z,7644
2023-03-24T17:28:12.010Z,6104
2023-03-24T17:33:13.474Z,4682.46154
2023-03-24T17:38:14.804Z,4050.66667
2023-03-24T17:43:16.074Z,5544
2023-03-24T17:48:17.544Z,4344
2023-03-24T17:53:18.832Z,6104
2023-03-24T17:58:20.231Z,6104
2023-03-24T18:03:21.872Z,4682.46154
2023-03-24T18:08:23.296Z,4682.46154
2023-03-24T18:13:24.543Z,4682.46154
2023-03-24T18:18:30.809Z,4050.66667
2023-03-24T18:23:32.058Z,4050.66667
2023-03-24T18:28:33.400Z,3024
2023-03-24T18:33:34.788Z,3186.10526
2023-03-24T18:38:36.064Z,2408
2023-03-24T18:43:37.768Z,2313.23077
2023-03-24T18:48:39.554Z,1997.33333
2023-03-24T18:53:41.037Z,1810.66667
2023-03-24T18:58:42.316Z,1755.76471
2023-03-24T19:03:43.806Z,1997.33333
2023-03-24T19:08:45.164Z,2068.13793
2023-03-24T19:13:46.432Z,1810.66667
2023-03-24T19:18:47.762Z,1997.33333
2023-03-24T19:23:51.955Z,1931.09677
2023-03-24T19:28:54.117Z,1608.86486
2023-03-24T19:33:55.391Z,1565.05263
2023-03-24T19:38:56.747Z,1997.33333
2023-03-24T19:43:58.221Z,2068.13793
2023-03-24T19:48:59.698Z,1997.33333
2023-03-24T19:54:01.108Z,2068.13793
2023-03-24T19:59:02.545Z,2225.48148
2023-03-24T20:04:04.075Z,1755.76471
2023-03-24T20:09:05.379Z,1704
2023-03-24T20:14:06.639Z,1446.43902
2023-03-24T20:19:08.314Z,1608.86486
2023-03-24T20:24:09.744Z,1565.05263
2023-03-24T20:29:11.629Z,1523.48718
2023-03-24T20:34:13.105Z,1484
2023-03-24T20:39:14.378Z,1523.48718
2023-03-24T20:44:15.747Z,1484
2023-03-24T20:49:17.086Z,1565.05263
2023-03-24T20:54:18.800Z,1704
2023-03-24T20:59:20.435Z,1608.86486
2023-03-24T21:04:21.711Z,1608.86486
2023-03-24T21:09:23.114Z,1608.86486
2023-03-24T21:14:24.372Z,1446.43902
2023-03-24T21:19:25.640Z,1484
2023-03-24T21:24:27.027Z,1523.48718
2023-03-24T21:29:28.382Z,1376.55814
2023-03-24T21:34:29.783Z,1608.86486
2023-03-24T21:39:31.137Z,1446.43902
2023-03-24T21:44:32.587Z,1755.76471
2023-03-24T21:49:33.963Z,1869
2023-03-24T21:54:35.231Z,2144
2023-03-24T21:59:36.601Z,2144
2023-03-24T22:04:38.087Z,2313.23077
2023-03-24T22:09:39.588Z,2225.48148
2023-03-24T22:14:40.854Z,2144
2023-03-24T22:19:42.095Z,1931.09677
2023-03-24T22:24:43.549Z,1931.09677
2023-03-24T22:29:44.920Z,2144
2023-03-24T22:34:46.329Z,1755.76471
2023-03-24T22:39:47.581Z,1869
2023-03-24T22:44:48.901Z,1931.09677
2023-03-24T22:49:50.512Z,2068.13793
2023-03-24T22:54:52.049Z,1869
2023-03-24T22:59:53.346Z,1931.09677
2023-03-24T23:04:55.136Z,1704
2023-03-24T23:09:56.634Z,1608.86486
2023-03-24T23:14:57.960Z,1565.05263
2023-03-24T23:19:59.290Z,1704
2023-03-24T23:25:02.963Z,1704
2023-03-24T23:30:04.798Z,1655.11111
2023-03-24T23:35:06.182Z,1565.05263
2023-03-24T23:40:07.581Z,1484
2023-03-24T23:45:08.863Z,1446.43902
2023-03-24T23:50:10.319Z,1376.55814
2023-03-24T23:55:11.598Z,1312.88889
